WetterOnline ( http://www.wetteronline.de )

Wetter aktuell Neubrandenburg

Aktuelles Wetter: Feldberg (115m)

6-stündlich | Neueste Meldungen
Ortszeit Temperatur Wetter
Fr, 20.07. 20:00 22.2° C wolkenlos
Fr, 20.07. 14:00 24.0° C wolkenlos
Fr, 20.07. 8:00 17.1° C leicht bewölkt
Fr, 20.07. 2:00 12.4° C fast wolkenlos
Do, 19.07. 20:00 21.8° C fast wolkenlos
Do, 19.07. 14:00 21.8° C bewölkt
Do, 19.07. 8:00 17.0° C Sprühregen
Do, 19.07. 2:00 18.1° C wolkenlos
Ortszeit Temperatur Wetter
Fr, 20.07. 22:00 14.0° C fast wolkenlos
Fr, 20.07. 21:50 14.0° C fast wolkenlos
Fr, 20.07. 21:40 15.0° C fast wolkenlos
Fr, 20.07. 21:30 18.4° C leicht bewölkt
Fr, 20.07. 21:20 18.4° C leicht bewölkt
Fr, 20.07. 21:10 19.0° C fast wolkenlos
Fr, 20.07. 21:00 19.8° C fast wolkenlos
Fr, 20.07. 20:30 20.8° C fast wolkenlos
Fr, 20.07. 20:00 22.2° C wolkenlos
Fr, 20.07. 19:30 22.9° C wolkenlos
Fr, 20.07. 19:00 23.6° C fast wolkenlos
Ortszeit Relative Feuchte Sichtweite
Fr, 20.07. 20:00 34% 30 km
Fr, 20.07. 14:00 37% 22 km
Fr, 20.07. 8:00 76% 18 km
Fr, 20.07. 2:00 86% 25 km
Do, 19.07. 20:00 42% 30 km
Do, 19.07. 14:00 43% 40 km
Do, 19.07. 8:00 95% 6 km
Do, 19.07. 2:00 75% 35 km
Ortszeit Relative Feuchte Sichtweite
Fr, 20.07. 22:00 71% 30 km
Fr, 20.07. 21:50 71% -
Fr, 20.07. 21:40 66% -
Fr, 20.07. 21:30 50% 30 km
Fr, 20.07. 21:20 50% -
Fr, 20.07. 21:10 46% -
Fr, 20.07. 21:00 43% 35 km
Fr, 20.07. 20:30 39% 35 km
Fr, 20.07. 20:00 34% 30 km
Fr, 20.07. 19:30 32% 21 km
Fr, 20.07. 19:00 31% 28 km
Ortszeit Niederschlagsmenge Niederschlagsart
Fr, 20.07. 20:00 0.0 l/m2 in 12 Std. -
Fr, 20.07. 14:00 0.0 l/m2 in 6 Std. -
Fr, 20.07. 8:00 0.0 l/m2 in 12 Std. -
Fr, 20.07. 2:00 0.0 l/m2 in 6 Std. -
Do, 19.07. 20:00 0.1 l/m2 in 12 Std. -
Do, 19.07. 14:00 0.1 l/m2 in 6 Std. Sprühregen
Do, 19.07. 8:00 1 l/m2 in 12 Std. Regen
Do, 19.07. 2:00 0.0 l/m2 in 6 Std. -
Ortszeit Niederschlagsmenge Niederschlagsart
Fr, 20.07. 22:00 0.0 l/m2 in 1 Std. -
Fr, 20.07. 21:50 keine Meldung -
Fr, 20.07. 21:40 keine Meldung -
Fr, 20.07. 21:30 0.0 l/m2 in 1 Std. -
Fr, 20.07. 21:20 keine Meldung -
Fr, 20.07. 21:10 keine Meldung -
Fr, 20.07. 21:00 0.0 l/m2 in 1 Std. -
Fr, 20.07. 20:30 0.0 l/m2 in 1 Std. -
Fr, 20.07. 20:00 0.0 l/m2 in 1 Std. -
Fr, 20.07. 19:30 0.0 l/m2 in 1 Std. -
Fr, 20.07. 19:00 0.0 l/m2 in 1 Std. -
Ortszeit Stärke Spitze Richtung
km/h Bft. km/h Grad Sektor
Fr, 20.07. 20:00 13 3 41 330° NW
Fr, 20.07. 14:00 18 3 32 280° W
Fr, 20.07. 8:00 13 3 19 320° NW
Fr, 20.07. 2:00 4 1 25 290° W
Do, 19.07. 20:00 14 3 43 340° N
Do, 19.07. 14:00 17 3 35 330° NW
Do, 19.07. 8:00 11 2 29 310° NW
Do, 19.07. 2:00 14 3 29 310° NW
Ortszeit Stärke Spitze Richtung
km/h Bft. km/h Grad Sektor
Fr, 20.07. 22:00 4 1 11 330° NW
Fr, 20.07. 21:50 4 1 - 330° NW
Fr, 20.07. 21:40 4 1 - 330° NW
Fr, 20.07. 21:30 6 1 9 330° NW
Fr, 20.07. 21:20 6 1 - 330° NW
Fr, 20.07. 21:10 7 2 - 340° N
Fr, 20.07. 21:00 7 2 18 340° N
Fr, 20.07. 20:30 11 2 18 350° N
Fr, 20.07. 20:00 13 3 26 330° NW
Fr, 20.07. 19:30 14 3 25 320° NW
Fr, 20.07. 19:00 13 3 26 320° NW
Ortszeit Untergrenze Bedeckung Gattung
total tief tief mittel hoch
Fr, 20.07. 20:00 8700 m 0/8 0/8 - - -
Fr, 20.07. 14:00 - 0/8 0/8 - - -
Fr, 20.07. 8:00 8700 m 3/8 0/8 - - -
Fr, 20.07. 2:00 8700 m 2/8 0/8 - - -
Do, 19.07. 20:00 8400 m 1/8 0/8 - - -
Do, 19.07. 14:00 1500 m 7/8 7/8 - - -
Do, 19.07. 8:00 150 m 8/8 8/8 - - -
Do, 19.07. 2:00 - 0/8 0/8 - - -
Ortszeit Bedeckungsgrad in Achtel und Wolkenuntergrenze
Fr, 20.07. 22:00 2(8400m)
Fr, 20.07. 21:50 2(8400m)
Fr, 20.07. 21:40 2(8400m)
Fr, 20.07. 21:30 3(8400m)
Fr, 20.07. 21:20 3(8400m)
Fr, 20.07. 21:10 1(8400m)
Fr, 20.07. 21:00 1(7500m)
Fr, 20.07. 20:30 1(8700m)
Fr, 20.07. 20:00 2(8700m) 2(9000m)
Fr, 20.07. 19:30 keine Wolken
Fr, 20.07. 19:00 2(8400m)
Ortszeit Luftdruck NN (hPa) Tendenz (hPa in 3 Std.)
Fr, 20.07. 20:00 1013 + 0,1
Fr, 20.07. 14:00 1014 - 0,9
Fr, 20.07. 8:00 1016 - 0,3
Fr, 20.07. 2:00 1016 - 0,4
Do, 19.07. 20:00 1016 + 0,1
Do, 19.07. 14:00 1016 + 0,2
Do, 19.07. 8:00 1016 + 0,8
Do, 19.07. 2:00 1015 + 0,2
Ortszeit Luftdruck NN (hPa) Tendenz (hPa in 3 Std.)
Fr, 20.07. 22:00 1014 + 0,2
Fr, 20.07. 21:50 1014 keine Meldung
Fr, 20.07. 21:40 1014 keine Meldung
Fr, 20.07. 21:30 1013 + 0,2
Fr, 20.07. 21:20 1013 keine Meldung
Fr, 20.07. 21:10 1013 keine Meldung
Fr, 20.07. 21:00 1013 + 0,1
Fr, 20.07. 20:30 1013 0,0
Fr, 20.07. 20:00 1013 + 0,1
Fr, 20.07. 19:30 1013 - 0,4
Fr, 20.07. 19:00 1013 - 0,7
Ortszeit Schneehöhe (cm)
Fr, 20.07. 20:00 -
Fr, 20.07. 14:00 -
Fr, 20.07. 8:00 -
Fr, 20.07. 2:00 -
Do, 19.07. 20:00 -
Do, 19.07. 14:00 -
Do, 19.07. 8:00 -
Do, 19.07. 2:00 -
Ortszeit Schneehöhe (cm)
Fr, 20.07. 22:00 -
Fr, 20.07. 21:50 -
Fr, 20.07. 21:40 -
Fr, 20.07. 21:30 -
Fr, 20.07. 21:20 -
Fr, 20.07. 21:10 -
Fr, 20.07. 21:00 -
Fr, 20.07. 20:30 -
Fr, 20.07. 20:00 -
Fr, 20.07. 19:30 -
Fr, 20.07. 19:00 -
Link zu dieser Seite / Seite empfehlen

Das Wetter in ...